Hamel, Minnesota
Current Conditions -  °F | °C
As of 11:53 PM on Wednesday 26 Nov 2014 (Local Time) from KMIC Reporting Station
Clear Clear  
Wind Chill: -2°   Ceiling: Unl
Heat Index: 11°   Visibility: 10mi
Dew Point: -2°   Wind: 9mph
Humidity: 56%   Direction: 350°N
Pressure: 30.4"   Gusts: NA
Location:  45.04°N, 93.53°W
Report Text: KMIC 270553Z AUTO 35008KT 10SM CLR M12/M19 A3040 RMK AO2 SLP311 T11171189 11044 21117 410281117 53023
Loading
Personal Weather Stations






























Interactive Weather Map New forecast layout! Learn more

10-Day Weather Forecast

Advertisements
Track Severe Weather on mobile